createdAt,value
2023-12-26T00:00:42.351Z,99.90
2023-12-26T00:03:27.683Z,99.90
2023-12-26T00:06:13.304Z,99.90
2023-12-26T00:08:58.863Z,99.90
2023-12-26T00:11:45.766Z,99.90
2023-12-26T00:14:31.526Z,99.90
2023-12-26T00:17:16.758Z,99.90
2023-12-26T00:20:05.963Z,99.90
2023-12-26T00:22:51.475Z,99.90
2023-12-26T00:25:37.320Z,99.90
2023-12-26T00:28:22.571Z,99.90
2023-12-26T00:31:08.072Z,99.90
2023-12-26T00:33:54.752Z,99.90
2023-12-26T00:36:40.179Z,99.70
2023-12-26T00:39:25.718Z,99.40
2023-12-26T00:42:13.019Z,99.30
2023-12-26T00:44:59.839Z,98.30
2023-12-26T00:47:46.738Z,98.10
2023-12-26T00:50:32.555Z,98.50
2023-12-26T00:53:18.356Z,98.00
2023-12-26T00:56:04.052Z,99.30
2023-12-26T00:58:49.550Z,99.70
2023-12-26T01:01:35.029Z,99.90
2023-12-26T01:04:22.680Z,99.60
2023-12-26T01:07:08.092Z,99.10
2023-12-26T01:09:53.916Z,99.90
2023-12-26T01:12:39.466Z,99.80
2023-12-26T01:15:25.166Z,99.70
2023-12-26T01:18:11.267Z,98.80
2023-12-26T01:20:56.977Z,99.60
2023-12-26T01:23:42.237Z,99.30
2023-12-26T01:26:27.747Z,99.90
2023-12-26T01:29:13.317Z,99.70
2023-12-26T01:31:58.857Z,99.70
2023-12-26T01:34:44.868Z,99.90
2023-12-26T01:37:30.478Z,99.90
2023-12-26T01:40:16.230Z,99.90
2023-12-26T01:43:01.413Z,99.90
2023-12-26T01:45:46.891Z,99.90
2023-12-26T01:48:32.927Z,99.90
2023-12-26T01:51:20.427Z,99.90
2023-12-26T01:54:05.745Z,99.90
2023-12-26T01:56:51.347Z,99.90
2023-12-26T01:59:38.307Z,99.90
2023-12-26T02:02:24.970Z,99.90
2023-12-26T02:05:13.328Z,99.90
2023-12-26T02:07:58.866Z,99.90
2023-12-26T02:10:44.350Z,99.90
2023-12-26T02:13:30.716Z,99.90
2023-12-26T02:16:22.900Z,99.90
2023-12-26T02:19:08.596Z,99.90
2023-12-26T02:21:54.090Z,99.90
2023-12-26T02:24:43.636Z,99.90
2023-12-26T02:27:30.478Z,99.90
2023-12-26T02:30:16.905Z,99.90
2023-12-26T02:33:05.638Z,99.90
2023-12-26T02:35:52.762Z,99.90
2023-12-26T02:38:38.056Z,99.90
2023-12-26T02:41:23.552Z,99.90
2023-12-26T02:44:09.084Z,99.90
2023-12-26T02:46:54.606Z,99.90
2023-12-26T02:49:40.297Z,99.90
2023-12-26T02:52:25.618Z,99.90
2023-12-26T02:55:12.386Z,99.90
2023-12-26T02:57:57.564Z,99.90
2023-12-26T03:00:43.123Z,99.90
2023-12-26T03:03:28.701Z,99.90
2023-12-26T03:06:15.121Z,99.90
2023-12-26T03:09:00.523Z,99.90
2023-12-26T03:11:45.923Z,99.90
2023-12-26T03:14:31.394Z,99.90
2023-12-26T03:17:17.172Z,99.90
2023-12-26T03:20:03.083Z,99.90
2023-12-26T03:22:49.368Z,99.90
2023-12-26T03:25:35.872Z,99.90
2023-12-26T03:28:21.395Z,99.90
2023-12-26T03:31:08.454Z,99.90
2023-12-26T03:33:56.390Z,99.90
2023-12-26T03:36:46.473Z,99.90
2023-12-26T03:39:33.474Z,99.90
2023-12-26T03:42:19.840Z,99.90
2023-12-26T03:45:05.683Z,99.90
2023-12-26T03:47:53.431Z,99.90
2023-12-26T03:50:40.048Z,99.90
2023-12-26T03:53:25.534Z,99.90
2023-12-26T03:56:11.399Z,99.90
2023-12-26T03:58:56.882Z,99.90
2023-12-26T04:01:42.284Z,99.90
2023-12-26T04:04:28.017Z,99.90
2023-12-26T04:07:13.866Z,99.90
2023-12-26T04:09:59.537Z,99.90
2023-12-26T04:12:44.737Z,99.90
2023-12-26T04:15:30.647Z,99.90
2023-12-26T04:18:16.892Z,99.90
2023-12-26T04:21:02.562Z,99.70
2023-12-26T04:23:48.076Z,99.30
2023-12-26T04:26:37.381Z,98.20
2023-12-26T04:29:23.359Z,99.30
2023-12-26T04:32:11.211Z,99.90
2023-12-26T04:34:57.528Z,98.60
2023-12-26T04:37:43.628Z,99.00
2023-12-26T04:40:29.681Z,98.30
2023-12-26T04:43:18.493Z,99.90
2023-12-26T04:46:04.106Z,98.50
2023-12-26T04:48:49.730Z,99.90
2023-12-26T04:51:35.661Z,99.90
2023-12-26T04:54:21.144Z,99.90
2023-12-26T04:57:06.707Z,99.90
2023-12-26T04:59:52.333Z,99.90
2023-12-26T05:02:37.720Z,99.90
2023-12-26T05:05:23.293Z,99.90
2023-12-26T05:08:08.482Z,99.90
2023-12-26T05:10:54.633Z,99.90
2023-12-26T05:13:41.665Z,99.90
2023-12-26T05:16:28.513Z,99.90
2023-12-26T05:19:14.233Z,99.90
2023-12-26T05:22:00.310Z,99.90
2023-12-26T05:24:51.562Z,99.90
2023-12-26T05:27:40.653Z,99.90
2023-12-26T05:30:26.240Z,99.90
2023-12-26T05:33:13.388Z,99.90
2023-12-26T05:36:00.706Z,99.90
2023-12-26T05:38:46.104Z,99.90
2023-12-26T05:41:31.740Z,99.90
2023-12-26T05:44:17.214Z,99.90
2023-12-26T05:47:04.670Z,99.90
2023-12-26T05:49:50.808Z,99.90
2023-12-26T05:52:36.451Z,99.90
2023-12-26T05:55:22.190Z,99.90
2023-12-26T05:58:07.967Z,99.90
2023-12-26T06:00:54.327Z,99.90
2023-12-26T06:03:39.754Z,99.90
2023-12-26T06:06:26.660Z,99.90
2023-12-26T06:09:12.015Z,99.90
2023-12-26T06:11:57.732Z,99.90
2023-12-26T06:14:43.582Z,99.90
2023-12-26T06:17:30.527Z,99.90
2023-12-26T06:20:18.094Z,99.90
2023-12-26T06:23:04.150Z,99.90
2023-12-26T06:25:49.287Z,99.90
2023-12-26T06:28:35.627Z,99.90
2023-12-26T06:31:21.137Z,99.90
2023-12-26T06:34:06.871Z,99.90
2023-12-26T06:36:53.208Z,99.90
2023-12-26T06:39:40.329Z,99.90
2023-12-26T06:42:25.774Z,99.90
2023-12-26T06:45:11.337Z,99.90
2023-12-26T06:47:57.000Z,99.90
2023-12-26T06:50:42.318Z,99.90
2023-12-26T06:53:27.720Z,99.90
2023-12-26T06:56:13.256Z,99.90
2023-12-26T06:58:59.642Z,99.90
2023-12-26T07:01:48.369Z,99.90
2023-12-26T07:04:33.582Z,99.90
2023-12-26T07:07:19.283Z,99.90
2023-12-26T07:10:05.129Z,99.90
2023-12-26T07:12:51.474Z,99.90
2023-12-26T07:15:37.036Z,99.90
2023-12-26T07:18:23.051Z,99.90
2023-12-26T07:21:09.274Z,99.90
2023-12-26T07:23:55.115Z,99.90
2023-12-26T07:26:40.517Z,99.90
2023-12-26T07:29:28.285Z,99.90
2023-12-26T07:32:13.997Z,99.90
2023-12-26T07:34:59.541Z,99.90
2023-12-26T07:37:45.014Z,99.90
2023-12-26T07:40:31.785Z,99.90
2023-12-26T07:43:18.021Z,99.90
2023-12-26T07:46:03.955Z,99.90
2023-12-26T07:48:49.419Z,99.90
2023-12-26T07:51:34.757Z,99.30
2023-12-26T07:54:20.647Z,99.90
2023-12-26T07:57:06.723Z,99.90
2023-12-26T07:59:52.157Z,99.80
2023-12-26T08:02:37.644Z,98.40
2023-12-26T08:05:23.137Z,99.70
2023-12-26T08:08:08.528Z,99.90
2023-12-26T08:10:53.887Z,98.80
2023-12-26T08:13:39.564Z,99.00
2023-12-26T08:16:25.196Z,99.90
2023-12-26T08:19:11.654Z,99.90
2023-12-26T08:21:57.303Z,99.50
2023-12-26T08:24:43.043Z,99.20
2023-12-26T08:27:28.457Z,99.50
2023-12-26T08:30:14.140Z,96.20
2023-12-26T08:32:59.706Z,95.90
2023-12-26T08:35:45.672Z,95.10
2023-12-26T08:38:30.914Z,95.20
2023-12-26T08:41:16.495Z,95.80
2023-12-26T08:44:01.960Z,95.00
2023-12-26T08:46:47.359Z,91.70
2023-12-26T08:49:33.092Z,90.50
2023-12-26T08:52:19.309Z,90.40
2023-12-26T08:55:05.279Z,88.40
2023-12-26T08:57:50.425Z,87.50
2023-12-26T09:00:36.010Z,88.80
2023-12-26T09:03:21.619Z,86.40
2023-12-26T09:06:11.196Z,86.10
2023-12-26T09:08:56.445Z,85.70
2023-12-26T09:11:42.145Z,86.60
2023-12-26T09:14:27.572Z,87.00
2023-12-26T09:17:14.150Z,85.70
2023-12-26T09:19:59.565Z,85.30
2023-12-26T09:22:45.251Z,85.40
2023-12-26T09:25:31.165Z,82.80
2023-12-26T09:28:17.913Z,82.50
2023-12-26T09:31:03.190Z,82.30
2023-12-26T09:33:49.443Z,83.10
2023-12-26T09:36:34.762Z,82.10
2023-12-26T09:39:20.700Z,81.50
2023-12-26T09:42:09.108Z,81.70
2023-12-26T09:44:54.889Z,79.30
2023-12-26T09:47:44.382Z,79.00
2023-12-26T09:50:29.784Z,78.20
2023-12-26T09:53:19.987Z,77.50
2023-12-26T09:56:06.255Z,78.90
2023-12-26T09:58:51.823Z,80.00
2023-12-26T10:01:37.172Z,80.60
2023-12-26T10:04:22.754Z,77.30
2023-12-26T10:07:10.372Z,77.70
2023-12-26T10:09:56.324Z,76.80
2023-12-26T10:12:41.854Z,77.00
2023-12-26T10:15:28.351Z,78.30
2023-12-26T10:18:14.044Z,78.30
2023-12-26T10:20:59.237Z,76.60
2023-12-26T10:23:46.437Z,76.00
2023-12-26T10:26:31.697Z,75.50
2023-12-26T10:29:17.591Z,75.30
2023-12-26T10:32:03.263Z,75.10
2023-12-26T10:34:48.587Z,76.10
2023-12-26T10:37:34.872Z,77.00
2023-12-26T10:40:20.791Z,76.50
2023-12-26T10:43:06.661Z,77.20
2023-12-26T10:45:54.832Z,77.80
2023-12-26T10:48:44.528Z,78.10
2023-12-26T10:51:31.517Z,77.80
2023-12-26T10:54:22.001Z,78.40
2023-12-26T10:57:09.510Z,78.60
2023-12-26T10:59:54.813Z,77.70
2023-12-26T11:02:41.417Z,78.50
2023-12-26T11:05:27.100Z,77.20
2023-12-26T11:08:12.708Z,78.00
2023-12-26T11:10:58.401Z,77.60
2023-12-26T11:13:44.098Z,76.70
2023-12-26T11:16:29.986Z,77.60
2023-12-26T11:19:15.379Z,77.40
2023-12-26T11:22:00.781Z,77.20
2023-12-26T11:24:46.636Z,77.30
2023-12-26T11:27:32.241Z,76.90
2023-12-26T11:30:18.527Z,77.30
2023-12-26T11:33:04.793Z,76.80
2023-12-26T11:35:50.454Z,76.50
2023-12-26T11:38:36.770Z,77.20
2023-12-26T11:41:22.268Z,76.60
2023-12-26T11:44:07.679Z,74.60
2023-12-26T11:46:53.137Z,74.30
2023-12-26T11:49:38.718Z,75.30
2023-12-26T11:52:24.232Z,76.30
2023-12-26T11:55:09.645Z,75.40
2023-12-26T11:57:55.327Z,76.10
2023-12-26T12:00:40.986Z,75.90
2023-12-26T12:03:26.359Z,74.60
2023-12-26T12:06:17.191Z,74.80
2023-12-26T12:09:06.459Z,74.40
2023-12-26T12:11:51.907Z,74.10
2023-12-26T12:14:37.343Z,72.90
2023-12-26T12:17:23.088Z,73.50
2023-12-26T12:20:08.326Z,73.40
2023-12-26T12:22:54.229Z,72.90
2023-12-26T12:25:40.265Z,72.80
2023-12-26T12:28:25.758Z,72.60
2023-12-26T12:31:14.883Z,71.40
2023-12-26T12:34:13.071Z,72.20
2023-12-26T12:36:59.382Z,71.60
2023-12-26T12:39:45.031Z,72.10
2023-12-26T12:42:31.382Z,72.20
2023-12-26T12:45:16.680Z,71.60
2023-12-26T12:48:03.349Z,72.10
2023-12-26T12:50:50.195Z,71.80
2023-12-26T12:53:40.949Z,71.90
2023-12-26T12:56:26.078Z,72.00
2023-12-26T12:59:11.531Z,72.80
2023-12-26T13:01:57.071Z,71.70
2023-12-26T13:04:43.952Z,71.90
2023-12-26T13:07:29.628Z,71.20
2023-12-26T13:10:15.151Z,72.20
2023-12-26T13:13:00.846Z,72.10
2023-12-26T13:15:46.556Z,72.50
2023-12-26T13:18:32.202Z,70.00
2023-12-26T13:21:17.614Z,70.50
2023-12-26T13:24:02.961Z,71.40
2023-12-26T13:26:50.137Z,69.50
2023-12-26T13:29:35.583Z,69.50
2023-12-26T13:32:21.374Z,69.80
2023-12-26T13:35:06.795Z,69.30
2023-12-26T13:37:52.279Z,68.90
2023-12-26T13:40:37.724Z,68.90
2023-12-26T13:43:34.776Z,69.10
2023-12-26T13:46:21.967Z,68.70
2023-12-26T13:49:07.403Z,68.60
2023-12-26T13:51:52.881Z,68.60
2023-12-26T13:54:38.343Z,68.90
2023-12-26T13:57:23.852Z,68.20
2023-12-26T14:00:09.279Z,68.10
2023-12-26T14:03:01.273Z,68.70
2023-12-26T14:05:46.903Z,67.50
2023-12-26T14:08:32.405Z,68.30
2023-12-26T14:11:21.373Z,68.60
2023-12-26T14:14:06.842Z,68.70
2023-12-26T14:16:52.422Z,68.60
2023-12-26T14:19:37.971Z,68.30
2023-12-26T14:22:24.960Z,68.90
2023-12-26T14:25:10.337Z,68.60
2023-12-26T14:27:55.793Z,68.50
2023-12-26T14:30:41.592Z,68.20
2023-12-26T14:33:27.047Z,69.00
2023-12-26T14:36:12.510Z,68.70
2023-12-26T14:38:58.084Z,68.20
2023-12-26T14:41:43.597Z,67.80
2023-12-26T14:44:29.123Z,67.90
2023-12-26T14:47:14.558Z,68.20
2023-12-26T14:50:00.177Z,68.20
2023-12-26T14:52:45.521Z,69.10
2023-12-26T14:55:31.097Z,68.80
2023-12-26T14:58:16.842Z,68.70
2023-12-26T15:01:03.657Z,68.80
2023-12-26T15:03:50.515Z,70.20
2023-12-26T15:06:36.001Z,71.60
2023-12-26T15:09:21.502Z,75.50
2023-12-26T15:12:07.352Z,75.10
2023-12-26T15:14:53.095Z,76.30
2023-12-26T15:17:39.101Z,75.60
2023-12-26T15:20:24.554Z,76.10
2023-12-26T15:23:10.163Z,75.90
2023-12-26T15:25:55.693Z,75.70
2023-12-26T15:28:44.939Z,75.10
2023-12-26T15:31:30.352Z,74.90
2023-12-26T15:34:16.088Z,74.00
2023-12-26T15:37:01.414Z,73.50
2023-12-26T15:39:46.943Z,73.70
2023-12-26T15:42:32.675Z,72.80
2023-12-26T15:45:20.587Z,72.50
2023-12-26T15:48:06.460Z,72.20
2023-12-26T15:50:52.046Z,72.00
2023-12-26T15:53:37.752Z,72.10
2023-12-26T15:56:30.205Z,71.20
2023-12-26T15:59:15.884Z,71.50
2023-12-26T16:02:01.581Z,70.50
2023-12-26T16:04:47.165Z,71.10
2023-12-26T16:07:33.267Z,70.80
2023-12-26T16:10:21.407Z,71.50
2023-12-26T16:13:07.274Z,71.30
2023-12-26T16:15:52.745Z,71.20
2023-12-26T16:18:40.207Z,70.70
2023-12-26T16:21:26.000Z,70.20
2023-12-26T16:24:13.326Z,69.90
2023-12-26T16:26:58.856Z,69.70
2023-12-26T16:29:44.407Z,70.40
2023-12-26T16:32:29.850Z,69.70
2023-12-26T16:35:15.905Z,69.60
2023-12-26T16:38:02.081Z,68.90
2023-12-26T16:40:47.284Z,69.20
2023-12-26T16:43:32.908Z,69.90
2023-12-26T16:46:18.461Z,70.40
2023-12-26T16:49:04.170Z,70.30
2023-12-26T16:51:49.754Z,70.40
2023-12-26T16:54:41.432Z,69.20
2023-12-26T16:57:35.982Z,69.30
2023-12-26T17:00:21.932Z,68.70
2023-12-26T17:03:08.440Z,69.50
2023-12-26T17:05:53.914Z,70.00
2023-12-26T17:08:39.558Z,69.60
2023-12-26T17:11:25.149Z,69.20
2023-12-26T17:14:10.591Z,69.20
2023-12-26T17:16:55.939Z,68.50
2023-12-26T17:19:41.787Z,68.70
2023-12-26T17:22:27.280Z,68.40
2023-12-26T17:25:13.701Z,68.20
2023-12-26T17:27:59.736Z,68.70
2023-12-26T17:30:45.432Z,68.60
2023-12-26T17:33:32.005Z,69.00
2023-12-26T17:36:17.992Z,68.90
2023-12-26T17:39:05.194Z,68.70
2023-12-26T17:41:50.850Z,69.00
2023-12-26T17:44:36.200Z,69.40
2023-12-26T17:47:21.796Z,69.40
2023-12-26T17:50:07.599Z,68.70
2023-12-26T17:52:53.086Z,68.80
2023-12-26T17:55:38.649Z,68.70
2023-12-26T17:58:29.423Z,69.50
2023-12-26T18:01:15.710Z,69.70
2023-12-26T18:04:01.181Z,69.90
2023-12-26T18:06:46.588Z,69.80
2023-12-26T18:09:32.407Z,69.70
2023-12-26T18:12:17.999Z,70.40
2023-12-26T18:15:04.365Z,70.40
2023-12-26T18:17:50.095Z,71.00
2023-12-26T18:20:35.666Z,71.70
2023-12-26T18:23:21.994Z,71.00
2023-12-26T18:26:07.780Z,71.50
2023-12-26T18:28:53.183Z,71.80
2023-12-26T18:31:39.254Z,71.80
2023-12-26T18:34:28.011Z,72.40
2023-12-26T18:37:13.892Z,73.30
2023-12-26T18:39:59.321Z,73.00
2023-12-26T18:42:44.893Z,73.50
2023-12-26T18:45:31.890Z,73.20
2023-12-26T18:48:19.483Z,72.60
2023-12-26T18:51:05.369Z,71.50
2023-12-26T18:53:51.368Z,70.50
2023-12-26T18:56:37.118Z,69.90
2023-12-26T18:59:22.553Z,69.10
2023-12-26T19:02:08.113Z,68.70
2023-12-26T19:04:53.739Z,69.00
2023-12-26T19:07:39.113Z,68.60
2023-12-26T19:10:24.879Z,68.70
2023-12-26T19:13:10.676Z,69.30
2023-12-26T19:15:56.703Z,69.60
2023-12-26T19:18:42.389Z,71.40
2023-12-26T19:21:27.689Z,71.80
2023-12-26T19:24:13.327Z,71.90
2023-12-26T19:26:58.777Z,71.40
2023-12-26T19:29:44.377Z,71.20
2023-12-26T19:32:29.909Z,72.00
2023-12-26T19:35:15.425Z,71.90
2023-12-26T19:38:01.207Z,71.80
2023-12-26T19:40:48.068Z,71.70
2023-12-26T19:43:33.715Z,72.00
2023-12-26T19:46:19.357Z,72.10
2023-12-26T19:49:04.895Z,72.10
2023-12-26T19:51:50.266Z,72.30
2023-12-26T19:54:35.847Z,71.80
2023-12-26T19:57:23.865Z,72.50
2023-12-26T20:00:11.409Z,72.70
2023-12-26T20:02:59.065Z,73.10
2023-12-26T20:05:47.453Z,73.00
2023-12-26T20:08:32.991Z,73.80
2023-12-26T20:11:18.475Z,72.90
2023-12-26T20:14:03.894Z,73.30
2023-12-26T20:16:50.741Z,72.60
2023-12-26T20:19:38.403Z,73.60
2023-12-26T20:22:24.042Z,73.20
2023-12-26T20:25:09.545Z,73.60
2023-12-26T20:27:55.173Z,73.60
2023-12-26T20:30:40.665Z,74.60
2023-12-26T20:33:26.889Z,74.30
2023-12-26T20:36:12.350Z,73.80
2023-12-26T20:38:57.925Z,73.90
2023-12-26T20:41:44.178Z,74.10
2023-12-26T20:44:29.503Z,74.10
2023-12-26T20:47:15.200Z,73.10
2023-12-26T20:50:00.764Z,72.90
2023-12-26T20:52:46.207Z,72.90
2023-12-26T20:55:32.042Z,73.10
2023-12-26T20:58:18.152Z,72.90
2023-12-26T21:01:03.783Z,72.80
2023-12-26T21:03:49.740Z,72.60
2023-12-26T21:06:35.115Z,72.40
2023-12-26T21:09:20.615Z,72.60
2023-12-26T21:12:06.307Z,72.70
2023-12-26T21:14:54.718Z,72.90
2023-12-26T21:17:41.608Z,73.60
2023-12-26T21:20:26.909Z,73.30
2023-12-26T21:23:12.492Z,74.10
2023-12-26T21:25:58.115Z,74.60
2023-12-26T21:28:44.418Z,74.70
2023-12-26T21:31:29.994Z,75.10
2023-12-26T21:34:15.656Z,74.80
2023-12-26T21:37:01.338Z,74.80
2023-12-26T21:39:46.777Z,74.80
2023-12-26T21:42:32.382Z,75.70
2023-12-26T21:45:18.017Z,75.90
2023-12-26T21:48:03.996Z,75.90
2023-12-26T21:50:49.833Z,75.70
2023-12-26T21:53:35.419Z,75.50
2023-12-26T21:56:21.068Z,75.00
2023-12-26T21:59:07.190Z,75.30
2023-12-26T22:01:55.253Z,75.30
2023-12-26T22:04:40.799Z,75.50
2023-12-26T22:07:26.528Z,75.50
2023-12-26T22:10:15.367Z,75.90
2023-12-26T22:13:00.739Z,77.50
2023-12-26T22:15:48.345Z,77.60
2023-12-26T22:18:34.053Z,77.90
2023-12-26T22:21:19.850Z,77.70
2023-12-26T22:24:05.512Z,77.60
2023-12-26T22:26:50.991Z,77.40
2023-12-26T22:29:36.386Z,77.50
2023-12-26T22:32:21.775Z,77.30
2023-12-26T22:35:07.570Z,77.80
2023-12-26T22:37:54.221Z,78.30
2023-12-26T22:40:39.764Z,78.40
2023-12-26T22:43:25.337Z,78.10
2023-12-26T22:46:22.707Z,78.60
2023-12-26T22:49:08.063Z,79.60
2023-12-26T22:51:53.361Z,80.30
2023-12-26T22:54:41.404Z,80.20
2023-12-26T22:57:28.088Z,80.00
2023-12-26T23:00:20.273Z,80.10
2023-12-26T23:03:06.005Z,80.80
2023-12-26T23:05:51.538Z,81.80
2023-12-26T23:08:37.100Z,82.70
2023-12-26T23:11:23.886Z,83.00
2023-12-26T23:14:11.019Z,83.70
2023-12-26T23:16:56.543Z,84.00
2023-12-26T23:19:46.434Z,84.60
2023-12-26T23:22:32.193Z,85.40
2023-12-26T23:25:17.716Z,85.50
2023-12-26T23:28:03.478Z,85.90
2023-12-26T23:30:49.302Z,86.40
2023-12-26T23:33:34.623Z,87.50
2023-12-26T23:36:20.073Z,87.10
2023-12-26T23:39:05.997Z,87.90
2023-12-26T23:41:51.736Z,87.60
2023-12-26T23:44:37.178Z,88.20
2023-12-26T23:47:22.785Z,89.20
2023-12-26T23:50:08.496Z,89.20
2023-12-26T23:52:54.007Z,89.50
2023-12-26T23:55:40.216Z,89.70
2023-12-26T23:58:25.455Z,90.20
